createdAt,value
2023-04-09T00:00:36.943Z,34.42
2023-04-09T00:01:39.115Z,33.95
2023-04-09T00:02:41.560Z,32.80
2023-04-09T00:03:43.816Z,32.25
2023-04-09T00:04:46.154Z,36.35
2023-04-09T00:05:48.313Z,33.40
2023-04-09T00:06:50.600Z,35.38
2023-04-09T00:07:52.746Z,33.78
2023-04-09T00:08:55.023Z,36.03
2023-04-09T00:09:57.175Z,34.25
2023-04-09T00:10:59.920Z,36.65
2023-04-09T00:12:02.241Z,34.42
2023-04-09T00:13:04.372Z,35.38
2023-04-09T00:14:06.498Z,35.05
2023-04-09T00:15:13.028Z,34.78
2023-04-09T00:16:19.874Z,36.92
2023-04-09T00:17:22.080Z,38.50
2023-04-09T00:18:24.261Z,36.08
2023-04-09T00:19:26.573Z,37.03
2023-04-09T00:20:28.697Z,36.97
2023-04-09T00:21:30.925Z,34.58
2023-04-09T00:22:33.069Z,36.40
2023-04-09T00:23:35.544Z,34.22
2023-04-09T00:24:37.665Z,36.22
2023-04-09T00:25:39.860Z,33.97
2023-04-09T00:26:41.979Z,37.40
2023-04-09T00:27:44.063Z,36.67
2023-04-09T00:28:46.173Z,33.97
2023-04-09T00:29:48.313Z,36.58
2023-04-09T00:30:50.450Z,37.72
2023-04-09T00:31:52.619Z,35.78
2023-04-09T00:32:54.797Z,35.45
2023-04-09T00:33:56.906Z,40.70
2023-04-09T00:34:58.966Z,39.50
2023-04-09T00:36:01.089Z,37.38
2023-04-09T00:37:03.439Z,38.45
2023-04-09T00:38:05.589Z,35.88
2023-04-09T00:39:07.768Z,37.95
2023-04-09T00:40:10.320Z,35.97
2023-04-09T00:41:12.456Z,36.40
2023-04-09T00:42:14.589Z,37.78
2023-04-09T00:43:18.025Z,38.88
2023-04-09T00:44:20.205Z,37.05
2023-04-09T00:45:22.329Z,37.78
2023-04-09T00:46:24.472Z,37.30
2023-04-09T00:47:29.080Z,39.10
2023-04-09T00:48:31.319Z,39.72
2023-04-09T00:49:33.709Z,35.20
2023-04-09T00:50:36.365Z,37.20
2023-04-09T00:51:38.853Z,37.88
2023-04-09T00:52:41.121Z,33.28
2023-04-09T00:53:44.076Z,37.65
2023-04-09T00:54:46.205Z,38.95
2023-04-09T00:55:48.334Z,37.65
2023-04-09T00:56:51.202Z,38.00
2023-04-09T00:57:53.324Z,35.05
2023-04-09T00:58:55.973Z,38.55
2023-04-09T00:59:58.589Z,38.53
2023-04-09T01:01:00.780Z,40.97
2023-04-09T01:02:03.025Z,38.30
2023-04-09T01:03:06.128Z,39.28
2023-04-09T01:04:08.384Z,37.45
2023-04-09T01:05:11.494Z,36.65
2023-04-09T01:06:59.723Z,34.05
2023-04-09T01:08:31.035Z,34.50
2023-04-09T01:09:41.501Z,34.92
2023-04-09T01:10:51.005Z,37.47
2023-04-09T01:12:11.611Z,37.88
2023-04-09T01:13:21.614Z,37.28
2023-04-09T01:14:29.260Z,35.80
2023-04-09T01:15:36.358Z,37.35
2023-04-09T01:16:42.760Z,37.17
2023-04-09T01:17:54.625Z,38.53
2023-04-09T01:18:59.883Z,37.53
2023-04-09T01:20:05.439Z,38.35
2023-04-09T01:21:13.937Z,34.97
2023-04-09T01:22:54.296Z,34.55
2023-04-09T01:24:14.645Z,35.97
2023-04-09T01:25:23.979Z,38.22
2023-04-09T01:26:54.600Z,37.85
2023-04-09T01:28:16.887Z,35.20
2023-04-09T01:29:20.490Z,38.35
2023-04-09T01:30:23.049Z,37.10
2023-04-09T01:31:38.739Z,37.75
2023-04-09T01:32:41.248Z,40.13
2023-04-09T01:33:43.673Z,40.40
2023-04-09T01:34:47.917Z,37.70
2023-04-09T01:35:50.985Z,38.95
2023-04-09T01:36:55.691Z,39.33
2023-04-09T01:37:58.488Z,41.60
2023-04-09T01:39:01.581Z,37.95
2023-04-09T01:40:04.920Z,40.03
2023-04-09T01:41:08.285Z,37.83
2023-04-09T01:42:12.275Z,37.88
2023-04-09T01:43:15.140Z,39.28
2023-04-09T01:44:18.041Z,38.95
2023-04-09T01:45:20.912Z,38.53
2023-04-09T01:46:24.128Z,43.50
2023-04-09T01:47:27.671Z,39.17
2023-04-09T01:48:31.174Z,37.47
2023-04-09T01:49:33.374Z,42.97
2023-04-09T01:50:35.768Z,34.55
2023-04-09T01:51:38.403Z,36.15
2023-04-09T01:52:40.792Z,36.10
2023-04-09T01:53:42.912Z,33.97
2023-04-09T01:54:45.039Z,36.50
2023-04-09T01:55:47.168Z,36.05
2023-04-09T01:56:49.272Z,37.80
2023-04-09T01:57:51.418Z,40.00
2023-04-09T01:58:53.762Z,37.88
2023-04-09T01:59:56.366Z,38.15
2023-04-09T02:01:08.984Z,37.00
2023-04-09T02:02:16.213Z,35.65
2023-04-09T02:03:22.550Z,37.22
2023-04-09T02:04:35.514Z,36.00
2023-04-09T02:05:41.147Z,37.35
2023-04-09T02:06:53.421Z,35.35
2023-04-09T02:07:57.195Z,39.70
2023-04-09T02:09:01.954Z,38.20
2023-04-09T02:10:06.124Z,36.72
2023-04-09T02:11:10.686Z,37.88
2023-04-09T02:12:15.129Z,34.72
2023-04-09T02:13:18.608Z,36.92
2023-04-09T02:14:21.271Z,34.22
2023-04-09T02:15:23.890Z,33.45
2023-04-09T02:16:27.440Z,37.97
2023-04-09T02:17:29.690Z,31.65
2023-04-09T02:18:32.761Z,36.97
2023-04-09T02:19:41.874Z,33.58
2023-04-09T02:20:44.023Z,35.88
2023-04-09T02:21:46.572Z,38.05
2023-04-09T02:22:48.985Z,34.55
2023-04-09T02:23:51.144Z,34.30
2023-04-09T02:24:53.458Z,35.42
2023-04-09T02:25:55.580Z,36.75
2023-04-09T02:26:57.936Z,35.70
2023-04-09T02:28:00.047Z,36.33
2023-04-09T02:29:02.177Z,36.30
2023-04-09T02:30:04.631Z,35.35
2023-04-09T02:31:07.205Z,38.08
2023-04-09T02:32:09.368Z,34.97
2023-04-09T02:33:11.465Z,31.60
2023-04-09T02:34:13.597Z,31.88
2023-04-09T02:35:15.896Z,33.55
2023-04-09T02:36:18.093Z,31.95
2023-04-09T02:37:20.219Z,35.33
2023-04-09T02:38:22.314Z,32.95
2023-04-09T02:39:24.484Z,32.05
2023-04-09T02:40:26.860Z,33.97
2023-04-09T02:41:28.980Z,35.92
2023-04-09T02:42:31.061Z,31.77
2023-04-09T02:43:33.168Z,33.05
2023-04-09T02:44:35.415Z,35.45
2023-04-09T02:45:37.564Z,33.40
2023-04-09T02:46:40.719Z,34.30
2023-04-09T02:47:42.902Z,31.63
2023-04-09T02:48:45.101Z,33.80
2023-04-09T02:49:47.261Z,35.15
2023-04-09T02:50:49.336Z,35.60
2023-04-09T02:51:51.475Z,34.70
2023-04-09T02:52:53.637Z,33.08
2023-04-09T02:53:55.736Z,36.40
2023-04-09T02:54:57.882Z,33.80
2023-04-09T02:56:00.028Z,35.38
2023-04-09T02:57:02.142Z,39.40
2023-04-09T02:58:04.249Z,34.47
2023-04-09T02:59:06.342Z,35.67
2023-04-09T03:00:09.005Z,34.83
2023-04-09T03:01:11.334Z,37.47
2023-04-09T03:02:13.648Z,33.72
2023-04-09T03:03:16.097Z,34.75
2023-04-09T03:04:18.395Z,36.08
2023-04-09T03:05:21.074Z,36.53
2023-04-09T03:06:23.247Z,37.20
2023-04-09T03:07:25.431Z,35.92
2023-04-09T03:08:27.575Z,36.65
2023-04-09T03:09:30.493Z,35.38
2023-04-09T03:10:32.643Z,37.30
2023-04-09T03:11:34.735Z,37.65
2023-04-09T03:12:36.820Z,37.92
2023-04-09T03:13:38.932Z,40.40
2023-04-09T03:14:41.032Z,39.25
2023-04-09T03:15:43.154Z,37.08
2023-04-09T03:16:45.367Z,40.72
2023-04-09T03:17:47.555Z,38.78
2023-04-09T03:18:49.993Z,35.80
2023-04-09T03:19:52.536Z,42.40
2023-04-09T03:20:54.654Z,38.95
2023-04-09T03:21:56.767Z,41.58
2023-04-09T03:22:58.883Z,44.85
2023-04-09T03:24:02.202Z,43.10
2023-04-09T03:25:04.601Z,40.83
2023-04-09T03:26:07.098Z,42.58
2023-04-09T03:27:09.223Z,41.40
2023-04-09T03:28:11.315Z,41.75
2023-04-09T03:29:13.548Z,42.00
2023-04-09T03:30:15.890Z,42.38
2023-04-09T03:31:18.012Z,42.10
2023-04-09T03:32:20.121Z,40.97
2023-04-09T03:33:22.255Z,39.83
2023-04-09T03:34:24.676Z,42.03
2023-04-09T03:35:26.928Z,38.58
2023-04-09T03:36:29.217Z,37.90
2023-04-09T03:37:31.344Z,39.30
2023-04-09T03:38:33.519Z,38.33
2023-04-09T03:39:35.634Z,36.95
2023-04-09T03:40:37.735Z,35.60
2023-04-09T03:41:39.845Z,35.22
2023-04-09T03:42:44.768Z,37.03
2023-04-09T03:43:46.851Z,37.67
2023-04-09T03:44:49.072Z,36.20
2023-04-09T03:45:51.330Z,37.97
2023-04-09T03:46:53.547Z,35.78
2023-04-09T03:47:57.861Z,38.92
2023-04-09T03:49:00.606Z,38.40
2023-04-09T03:50:03.098Z,39.42
2023-04-09T03:51:05.245Z,37.40
2023-04-09T03:52:07.438Z,34.15
2023-04-09T03:53:09.579Z,33.25
2023-04-09T03:54:11.918Z,31.40
2023-04-09T03:55:14.048Z,35.10
2023-04-09T03:56:16.270Z,36.85
2023-04-09T03:57:18.381Z,35.15
2023-04-09T03:58:20.531Z,32.00
2023-04-09T03:59:23.356Z,31.48
2023-04-09T04:00:25.573Z,30.08
2023-04-09T04:01:27.700Z,33.20
2023-04-09T04:02:33.765Z,30.10
2023-04-09T04:03:36.326Z,30.42
2023-04-09T04:04:38.482Z,31.05
2023-04-09T04:05:40.609Z,29.02
2023-04-09T04:06:42.744Z,32.30
2023-04-09T04:07:45.047Z,32.70
2023-04-09T04:08:47.203Z,29.95
2023-04-09T04:09:49.322Z,29.98
2023-04-09T04:10:51.425Z,34.88
2023-04-09T04:11:53.558Z,28.10
2023-04-09T04:12:55.741Z,29.15
2023-04-09T04:13:57.972Z,30.75
2023-04-09T04:15:01.103Z,28.45
2023-04-09T04:16:07.556Z,29.48
2023-04-09T04:17:10.948Z,26.80
2023-04-09T04:18:13.194Z,28.55
2023-04-09T04:19:15.591Z,27.63
2023-04-09T04:20:17.737Z,28.20
2023-04-09T04:21:19.857Z,31.85
2023-04-09T04:22:23.297Z,29.92
2023-04-09T04:23:26.315Z,28.90
2023-04-09T04:24:28.441Z,30.42
2023-04-09T04:25:31.405Z,30.60
2023-04-09T04:26:33.545Z,30.25
2023-04-09T04:27:35.791Z,33.45
2023-04-09T04:28:38.728Z,32.53
2023-04-09T04:29:40.920Z,34.65
2023-04-09T04:30:43.171Z,31.08
2023-04-09T04:31:45.371Z,32.13
2023-04-09T04:32:50.817Z,29.67
2023-04-09T04:33:52.922Z,32.75
2023-04-09T04:34:55.092Z,30.45
2023-04-09T04:36:07.718Z,33.45
2023-04-09T04:37:09.812Z,32.75
2023-04-09T04:38:11.962Z,30.60
2023-04-09T04:39:14.076Z,33.88
2023-04-09T04:40:16.202Z,34.97
2023-04-09T04:41:18.391Z,33.17
2023-04-09T04:42:20.515Z,33.50
2023-04-09T04:43:22.633Z,34.25
2023-04-09T04:44:24.757Z,32.60
2023-04-09T04:45:26.824Z,31.38
2023-04-09T04:46:29.505Z,32.65
2023-04-09T04:47:32.580Z,32.83
2023-04-09T04:48:34.689Z,31.52
2023-04-09T04:49:36.773Z,31.65
2023-04-09T04:50:38.945Z,33.85
2023-04-09T04:51:41.068Z,32.78
2023-04-09T04:52:43.176Z,32.30
2023-04-09T04:53:45.300Z,33.25
2023-04-09T04:54:47.406Z,33.25
2023-04-09T04:55:49.561Z,30.27
2023-04-09T04:56:51.683Z,30.20
2023-04-09T04:57:53.781Z,30.38
2023-04-09T04:58:55.923Z,27.83
2023-04-09T04:59:58.074Z,29.30
2023-04-09T05:01:00.610Z,27.13
2023-04-09T05:02:02.864Z,30.58
2023-04-09T05:03:05.116Z,26.10
2023-04-09T05:04:07.274Z,28.25
2023-04-09T05:05:09.527Z,28.25
2023-04-09T05:06:11.900Z,27.17
2023-04-09T05:07:13.974Z,26.92
2023-04-09T05:08:16.136Z,31.00
2023-04-09T05:09:19.508Z,26.45
2023-04-09T05:10:23.313Z,31.33
2023-04-09T05:11:25.550Z,30.30
2023-04-09T05:12:27.614Z,28.50
2023-04-09T05:13:29.788Z,31.10
2023-04-09T05:14:31.923Z,29.58
2023-04-09T05:15:34.007Z,28.85
2023-04-09T05:16:36.258Z,27.02
2023-04-09T05:17:42.683Z,27.27
2023-04-09T05:18:44.835Z,31.67
2023-04-09T05:19:53.938Z,27.75
2023-04-09T05:20:56.224Z,30.17
2023-04-09T05:21:58.306Z,29.27
2023-04-09T05:23:00.546Z,28.90
2023-04-09T05:24:02.678Z,27.10
2023-04-09T05:25:05.274Z,28.63
2023-04-09T05:26:07.390Z,28.25
2023-04-09T05:27:09.663Z,29.67
2023-04-09T05:28:11.788Z,30.55
2023-04-09T05:29:13.941Z,28.33
2023-04-09T05:30:16.542Z,29.40
2023-04-09T05:31:18.972Z,26.88
2023-04-09T05:32:21.265Z,28.73
2023-04-09T05:33:23.414Z,29.63
2023-04-09T05:34:25.524Z,30.58
2023-04-09T05:35:27.786Z,28.75
2023-04-09T05:36:29.891Z,26.45
2023-04-09T05:37:32.000Z,28.20
2023-04-09T05:38:34.633Z,29.55
2023-04-09T05:39:36.786Z,27.83
2023-04-09T05:40:39.052Z,26.52
2023-04-09T05:41:42.048Z,32.53
2023-04-09T05:42:44.171Z,28.23
2023-04-09T05:43:46.272Z,29.00
2023-04-09T05:44:48.368Z,28.05
2023-04-09T05:45:50.601Z,27.27
2023-04-09T05:46:52.738Z,27.27
2023-04-09T05:47:54.941Z,29.83
2023-04-09T05:48:57.090Z,26.90
2023-04-09T05:49:59.186Z,28.67
2023-04-09T05:51:01.435Z,30.77
2023-04-09T05:52:03.547Z,29.75
2023-04-09T05:53:05.679Z,26.25
2023-04-09T05:54:07.869Z,27.13
2023-04-09T05:55:10.574Z,29.73
2023-04-09T05:56:16.265Z,30.60
2023-04-09T05:57:18.350Z,31.33
2023-04-09T05:58:21.665Z,32.08
2023-04-09T05:59:24.005Z,32.85
2023-04-09T06:00:26.181Z,35.70
2023-04-09T06:01:29.792Z,34.30
2023-04-09T06:02:32.042Z,34.55
2023-04-09T06:03:34.424Z,33.17
2023-04-09T06:04:36.666Z,31.25
2023-04-09T06:05:38.834Z,28.67
2023-04-09T06:06:41.353Z,29.10
2023-04-09T06:07:43.482Z,26.42
2023-04-09T06:08:45.628Z,26.48
2023-04-09T06:09:47.809Z,28.33
2023-04-09T06:10:49.954Z,25.25
2023-04-09T06:11:52.082Z,27.30
2023-04-09T06:12:54.349Z,27.15
2023-04-09T06:13:56.459Z,25.75
2023-04-09T06:14:58.651Z,27.27
2023-04-09T06:16:01.296Z,27.77
2023-04-09T06:17:03.577Z,24.65
2023-04-09T06:18:05.748Z,26.02
2023-04-09T06:19:07.934Z,29.35
2023-04-09T06:20:10.681Z,27.00
2023-04-09T06:21:13.714Z,24.70
2023-04-09T06:22:16.078Z,28.45
2023-04-09T06:23:18.197Z,27.45
2023-04-09T06:24:20.282Z,28.33
2023-04-09T06:25:22.646Z,31.67
2023-04-09T06:26:24.806Z,33.38
2023-04-09T06:27:27.273Z,34.05
2023-04-09T06:28:29.696Z,32.67
2023-04-09T06:29:31.819Z,31.42
2023-04-09T06:30:35.855Z,29.55
2023-04-09T06:31:38.240Z,28.25
2023-04-09T06:32:53.068Z,30.30
2023-04-09T06:33:56.616Z,27.65
2023-04-09T06:34:58.990Z,25.98
2023-04-09T06:36:01.429Z,27.48
2023-04-09T06:37:03.838Z,23.98
2023-04-09T06:38:06.953Z,26.08
2023-04-09T06:39:09.076Z,26.17
2023-04-09T06:40:11.748Z,25.75
2023-04-09T06:41:14.912Z,23.90
2023-04-09T06:42:17.013Z,22.92
2023-04-09T06:43:19.150Z,23.52
2023-04-09T06:44:21.841Z,24.45
2023-04-09T06:45:24.417Z,24.33
2023-04-09T06:46:26.635Z,25.30
2023-04-09T06:47:28.757Z,23.63
2023-04-09T06:48:31.374Z,27.13
2023-04-09T06:49:33.483Z,24.00
2023-04-09T06:50:35.622Z,24.60
2023-04-09T06:51:37.733Z,24.67
2023-04-09T06:52:39.910Z,26.35
2023-04-09T06:53:42.317Z,24.17
2023-04-09T06:54:45.964Z,24.13
2023-04-09T06:55:48.099Z,26.70
2023-04-09T06:56:50.328Z,23.90
2023-04-09T06:57:52.555Z,25.90
2023-04-09T06:58:54.664Z,21.83
2023-04-09T06:59:56.825Z,24.15
2023-04-09T07:00:59.978Z,22.33
2023-04-09T07:02:02.334Z,23.40
2023-04-09T07:03:05.723Z,20.88
2023-04-09T07:04:08.115Z,21.13
2023-04-09T07:05:10.628Z,23.48
2023-04-09T07:06:12.827Z,21.33
2023-04-09T07:07:15.117Z,23.92
2023-04-09T07:08:17.215Z,22.45
2023-04-09T07:09:19.338Z,21.05
2023-04-09T07:10:21.477Z,21.90
2023-04-09T07:11:23.640Z,22.27
2023-04-09T07:12:28.609Z,21.42
2023-04-09T07:13:31.370Z,20.38
2023-04-09T07:14:33.554Z,22.45
2023-04-09T07:15:35.754Z,20.85
2023-04-09T07:16:37.968Z,24.92
2023-04-09T07:17:40.388Z,21.73
2023-04-09T07:18:42.525Z,21.92
2023-04-09T07:19:44.620Z,21.38
2023-04-09T07:20:46.718Z,22.33
2023-04-09T07:21:48.860Z,22.60
2023-04-09T07:22:51.016Z,22.55
2023-04-09T07:23:53.474Z,20.70
2023-04-09T07:24:55.960Z,21.65
2023-04-09T07:25:58.098Z,22.40
2023-04-09T07:27:04.022Z,25.77
2023-04-09T07:28:06.360Z,21.17
2023-04-09T07:29:08.515Z,22.23
2023-04-09T07:30:10.930Z,21.38
2023-04-09T07:31:13.306Z,19.83
2023-04-09T07:32:16.439Z,19.80
2023-04-09T07:33:18.622Z,18.33
2023-04-09T07:34:21.027Z,19.50
2023-04-09T07:35:23.350Z,17.75
2023-04-09T07:36:26.690Z,21.77
2023-04-09T07:37:28.786Z,20.17
2023-04-09T07:38:31.019Z,18.98
2023-04-09T07:39:33.121Z,20.20
2023-04-09T07:40:36.740Z,19.23
2023-04-09T07:41:38.873Z,18.77
2023-04-09T07:42:42.543Z,17.52
2023-04-09T07:43:44.735Z,17.35
2023-04-09T07:44:47.592Z,18.48
2023-04-09T07:45:51.752Z,15.70
2023-04-09T07:46:53.973Z,18.80
2023-04-09T07:47:56.105Z,16.08
2023-04-09T07:48:58.290Z,16.85
2023-04-09T07:50:00.420Z,15.60
2023-04-09T07:51:02.537Z,14.18
2023-04-09T07:52:05.656Z,16.70
2023-04-09T07:53:07.802Z,17.17
2023-04-09T07:54:09.959Z,17.00
2023-04-09T07:55:12.131Z,19.08
2023-04-09T07:56:14.228Z,17.42
2023-04-09T07:57:16.412Z,19.90
2023-04-09T07:58:18.543Z,17.25
2023-04-09T07:59:20.850Z,18.63
2023-04-09T08:00:23.053Z,15.73
2023-04-09T08:01:26.231Z,16.52
2023-04-09T08:02:28.556Z,17.45
2023-04-09T08:03:31.024Z,17.27
2023-04-09T08:04:33.689Z,17.30
2023-04-09T08:05:36.735Z,17.25
2023-04-09T08:06:39.101Z,14.50
2023-04-09T08:07:41.200Z,16.50
2023-04-09T08:08:43.535Z,16.08
2023-04-09T08:09:46.045Z,18.95
2023-04-09T08:10:48.149Z,18.73
2023-04-09T08:11:50.478Z,21.10
2023-04-09T08:12:52.668Z,20.50
2023-04-09T08:13:55.135Z,21.00
2023-04-09T08:14:57.232Z,19.88
2023-04-09T08:16:02.477Z,18.80
2023-04-09T08:17:04.719Z,19.58
2023-04-09T08:18:07.372Z,17.88
2023-04-09T08:19:10.380Z,19.83
2023-04-09T08:20:12.911Z,19.88
2023-04-09T08:21:15.099Z,17.42
2023-04-09T08:22:17.220Z,18.83
2023-04-09T08:23:19.367Z,17.67
2023-04-09T08:24:21.520Z,18.05
2023-04-09T08:25:23.800Z,18.17
2023-04-09T08:26:25.982Z,18.23
2023-04-09T08:27:28.181Z,17.52
2023-04-09T08:28:30.290Z,17.65
2023-04-09T08:29:32.513Z,17.90
2023-04-09T08:30:34.723Z,18.95
2023-04-09T08:31:37.491Z,19.52
2023-04-09T08:32:39.831Z,19.60
2023-04-09T08:33:42.923Z,19.45
2023-04-09T08:34:45.110Z,18.70
2023-04-09T08:35:47.352Z,16.38
2023-04-09T08:36:49.970Z,16.02
2023-04-09T08:37:52.364Z,15.48
2023-04-09T08:38:56.164Z,17.17
2023-04-09T08:39:58.604Z,14.32
2023-04-09T08:41:00.896Z,14.32
2023-04-09T08:42:05.870Z,15.35
2023-04-09T08:43:09.045Z,15.43
2023-04-09T08:44:11.502Z,15.20
2023-04-09T08:45:13.992Z,14.77
2023-04-09T08:46:19.261Z,16.52
2023-04-09T08:47:21.853Z,16.38
2023-04-09T08:48:24.725Z,15.55
2023-04-09T08:49:26.909Z,18.90
2023-04-09T08:50:34.141Z,20.33
2023-04-09T08:51:36.381Z,18.00
2023-04-09T08:52:38.707Z,15.43
2023-04-09T08:53:47.589Z,14.55
2023-04-09T08:54:50.718Z,16.52
2023-04-09T08:55:52.934Z,14.80
2023-04-09T08:56:55.059Z,16.13
2023-04-09T08:57:58.268Z,15.77
2023-04-09T08:59:00.404Z,14.57
2023-04-09T09:00:02.816Z,14.05
2023-04-09T09:01:05.105Z,15.88
2023-04-09T09:02:11.707Z,14.32
2023-04-09T09:03:14.441Z,15.93
2023-04-09T09:04:16.778Z,15.10
2023-04-09T09:05:35.534Z,14.15
2023-04-09T09:06:39.415Z,15.88
2023-04-09T09:07:54.716Z,13.82
2023-04-09T09:09:04.152Z,14.60
2023-04-09T09:10:07.235Z,14.38
2023-04-09T09:11:09.372Z,15.05
2023-04-09T09:12:11.476Z,15.05
2023-04-09T09:13:19.996Z,15.30
2023-04-09T09:14:22.124Z,15.63
2023-04-09T09:15:29.697Z,17.67
2023-04-09T09:16:34.744Z,14.35
2023-04-09T09:17:54.100Z,15.77
2023-04-09T09:18:57.052Z,15.55
2023-04-09T09:20:00.905Z,14.15
2023-04-09T09:21:12.896Z,14.80
2023-04-09T09:22:15.234Z,15.05
2023-04-09T09:23:17.350Z,14.10
2023-04-09T09:24:19.448Z,14.95
2023-04-09T09:25:25.898Z,14.00
2023-04-09T09:26:30.103Z,13.63
2023-04-09T09:27:40.604Z,14.50
2023-04-09T09:28:43.144Z,16.13
2023-04-09T09:29:45.602Z,14.75
2023-04-09T09:30:49.182Z,14.30
2023-04-09T09:31:55.908Z,14.73
2023-04-09T09:33:11.238Z,12.18
2023-04-09T09:34:13.332Z,14.93
2023-04-09T09:35:16.053Z,13.82
2023-04-09T09:36:32.111Z,13.38
2023-04-09T09:37:34.384Z,13.85
2023-04-09T09:38:56.357Z,15.65
2023-04-09T09:39:59.230Z,15.25
2023-04-09T09:41:16.899Z,15.50
2023-04-09T09:42:19.056Z,15.32
2023-04-09T09:43:21.679Z,15.60
2023-04-09T09:44:33.668Z,15.32
2023-04-09T09:45:37.461Z,14.60
2023-04-09T09:46:41.599Z,15.73
2023-04-09T09:47:44.927Z,15.75
2023-04-09T09:48:47.100Z,14.43
2023-04-09T09:49:53.132Z,14.52
2023-04-09T09:50:55.688Z,14.35
2023-04-09T09:52:00.055Z,15.18
2023-04-09T09:53:05.463Z,15.80
2023-04-09T09:54:13.031Z,15.20
2023-04-09T09:55:16.720Z,15.90
2023-04-09T09:56:32.438Z,14.43
2023-04-09T09:57:39.285Z,16.15
2023-04-09T09:58:45.749Z,14.27
2023-04-09T09:59:56.833Z,14.75
2023-04-09T10:00:59.676Z,15.52
2023-04-09T10:02:06.225Z,14.70
2023-04-09T10:03:18.359Z,15.30
2023-04-09T10:04:21.357Z,16.17
2023-04-09T10:05:26.963Z,15.27
2023-04-09T10:06:30.922Z,14.48
2023-04-09T10:07:33.182Z,15.32
2023-04-09T10:08:38.146Z,15.68
2023-04-09T10:09:41.752Z,18.35
2023-04-09T10:10:43.966Z,15.88
2023-04-09T10:11:48.201Z,15.40
2023-04-09T10:12:51.257Z,16.83
2023-04-09T10:13:57.142Z,15.70
2023-04-09T10:15:04.560Z,14.63
2023-04-09T10:16:07.628Z,17.02
2023-04-09T10:17:10.529Z,15.75
2023-04-09T10:18:12.820Z,15.40
2023-04-09T10:19:15.473Z,14.38
2023-04-09T10:20:21.248Z,16.73
2023-04-09T10:21:47.929Z,15.65
2023-04-09T10:22:50.538Z,15.88
2023-04-09T10:23:53.188Z,16.17
2023-04-09T10:24:55.874Z,16.17
2023-04-09T10:25:58.734Z,15.50
2023-04-09T10:27:15.886Z,15.57
2023-04-09T10:28:18.829Z,15.07
2023-04-09T10:29:28.119Z,14.25
2023-04-09T10:30:35.176Z,13.55
2023-04-09T10:31:47.605Z,15.43
2023-04-09T10:32:49.751Z,17.45
2023-04-09T10:33:51.933Z,15.98
2023-04-09T10:34:58.865Z,16.30
2023-04-09T10:36:04.665Z,15.18
2023-04-09T10:37:09.759Z,14.48
2023-04-09T10:38:12.242Z,15.70
2023-04-09T10:39:14.405Z,16.17
2023-04-09T10:40:21.789Z,16.60
2023-04-09T10:41:29.172Z,16.17
2023-04-09T10:42:36.342Z,15.02
2023-04-09T10:43:38.565Z,16.40
2023-04-09T10:44:43.937Z,17.58
2023-04-09T10:45:48.215Z,14.75
2023-04-09T10:46:53.379Z,15.55
2023-04-09T10:47:55.643Z,16.27
2023-04-09T10:49:12.245Z,14.75
2023-04-09T10:50:21.101Z,17.02
2023-04-09T10:51:25.039Z,14.48
2023-04-09T10:52:30.447Z,16.08
2023-04-09T10:53:32.845Z,17.40
2023-04-09T10:54:34.945Z,15.80
2023-04-09T10:55:40.873Z,16.33
2023-04-09T10:57:13.631Z,17.30
2023-04-09T10:58:15.954Z,17.17
2023-04-09T10:59:18.044Z,15.05
2023-04-09T11:00:20.497Z,17.95
2023-04-09T11:01:22.965Z,15.85
2023-04-09T11:02:40.537Z,17.25
2023-04-09T11:03:45.003Z,17.70
2023-04-09T11:05:16.529Z,17.50
2023-04-09T11:06:20.756Z,16.80
2023-04-09T11:07:24.217Z,17.80
2023-04-09T11:08:30.113Z,18.33
2023-04-09T11:09:35.992Z,18.02
2023-04-09T11:10:41.331Z,17.13
2023-04-09T11:11:43.592Z,18.05
2023-04-09T11:12:47.980Z,18.40
2023-04-09T11:13:50.660Z,18.40
2023-04-09T11:14:52.767Z,19.40
2023-04-09T11:15:56.261Z,16.92
2023-04-09T11:16:58.452Z,19.02
2023-04-09T11:18:01.916Z,18.60
2023-04-09T11:19:04.400Z,18.42
2023-04-09T11:20:07.550Z,17.63
2023-04-09T11:21:10.312Z,18.52
2023-04-09T11:22:12.962Z,16.88
2023-04-09T11:23:16.267Z,17.65
2023-04-09T11:24:19.067Z,18.95
2023-04-09T11:25:34.050Z,18.75
2023-04-09T11:26:36.920Z,16.88
2023-04-09T11:27:39.187Z,16.83
2023-04-09T11:28:43.206Z,19.67
2023-04-09T11:29:45.431Z,16.13
2023-04-09T11:30:47.758Z,18.33
2023-04-09T11:31:49.886Z,19.42
2023-04-09T11:32:52.228Z,19.98
2023-04-09T11:33:54.469Z,20.15
2023-04-09T11:34:57.870Z,21.20
2023-04-09T11:36:00.100Z,18.90
2023-04-09T11:37:07.098Z,17.17
2023-04-09T11:38:10.194Z,15.45
2023-04-09T11:39:12.321Z,16.45
2023-04-09T11:40:16.852Z,17.38
2023-04-09T11:41:18.973Z,16.65
2023-04-09T11:42:25.604Z,17.17
2023-04-09T11:43:27.714Z,17.58
2023-04-09T11:44:31.106Z,18.65
2023-04-09T11:45:33.246Z,18.48
2023-04-09T11:46:36.126Z,16.90
2023-04-09T11:47:42.121Z,21.50
2023-04-09T11:48:44.443Z,21.52
2023-04-09T11:49:47.282Z,16.10
2023-04-09T11:50:49.868Z,16.63
2023-04-09T11:51:52.318Z,16.92
2023-04-09T11:52:54.484Z,16.83
2023-04-09T11:53:56.847Z,16.70
2023-04-09T11:55:05.511Z,15.82
2023-04-09T11:56:07.869Z,18.08
2023-04-09T11:57:10.325Z,18.27
2023-04-09T11:58:13.469Z,18.20
2023-04-09T11:59:15.707Z,17.23
2023-04-09T12:00:18.106Z,17.10
2023-04-09T12:01:22.244Z,15.88
2023-04-09T12:02:24.816Z,15.98
2023-04-09T12:03:31.337Z,18.38
2023-04-09T12:04:34.064Z,17.88
2023-04-09T12:05:36.873Z,18.85
2023-04-09T12:06:40.815Z,18.08
2023-04-09T12:07:55.570Z,17.23
2023-04-09T12:08:59.621Z,16.30
2023-04-09T12:10:10.502Z,17.88
2023-04-09T12:11:14.730Z,17.75
2023-04-09T12:12:20.440Z,17.58
2023-04-09T12:13:32.485Z,17.92
2023-04-09T12:14:35.062Z,16.95
2023-04-09T12:15:39.084Z,18.10
2023-04-09T12:16:43.922Z,16.33
2023-04-09T12:17:50.862Z,17.13
2023-04-09T12:18:55.884Z,17.05
2023-04-09T12:19:58.008Z,16.00
2023-04-09T12:21:01.466Z,15.88
2023-04-09T12:22:03.568Z,16.90
2023-04-09T12:23:07.020Z,16.85
2023-04-09T12:24:09.116Z,17.17
2023-04-09T12:25:11.468Z,15.20
2023-04-09T12:26:14.736Z,14.57
2023-04-09T12:27:16.890Z,15.82
2023-04-09T12:28:19.129Z,13.98
2023-04-09T12:29:21.441Z,15.98
2023-04-09T12:30:24.038Z,15.32
2023-04-09T12:31:26.268Z,13.93
2023-04-09T12:32:28.783Z,13.98
2023-04-09T12:33:31.180Z,14.68
2023-04-09T12:34:33.301Z,13.80
2023-04-09T12:35:35.647Z,14.52
2023-04-09T12:36:39.108Z,14.63
2023-04-09T12:37:42.454Z,15.18
2023-04-09T12:38:44.587Z,15.40
2023-04-09T12:39:46.780Z,15.35
2023-04-09T12:40:48.916Z,14.85
2023-04-09T12:41:51.367Z,14.07
2023-04-09T12:42:54.115Z,14.05
2023-04-09T12:43:56.188Z,14.48
2023-04-09T12:44:58.286Z,15.05
2023-04-09T12:46:00.546Z,15.25
2023-04-09T12:47:02.644Z,13.65
2023-04-09T12:48:04.856Z,14.27
2023-04-09T12:49:07.072Z,13.70
2023-04-09T12:50:10.599Z,13.30
2023-04-09T12:51:13.442Z,12.45
2023-04-09T12:52:16.144Z,15.02
2023-04-09T12:53:18.461Z,11.85
2023-04-09T12:54:20.622Z,12.65
2023-04-09T12:55:23.112Z,13.23
2023-04-09T12:56:25.284Z,14.40
2023-04-09T12:57:28.156Z,14.77
2023-04-09T12:58:31.436Z,15.25
2023-04-09T12:59:33.585Z,14.40
2023-04-09T13:00:35.763Z,13.73
2023-04-09T13:01:38.096Z,13.43
2023-04-09T13:02:40.611Z,12.82
2023-04-09T13:03:43.234Z,15.15
2023-04-09T13:04:45.608Z,13.45
2023-04-09T13:05:49.085Z,15.35
2023-04-09T13:06:51.174Z,14.20
2023-04-09T13:07:53.662Z,14.30
2023-04-09T13:08:55.834Z,16.17
2023-04-09T13:09:57.966Z,14.73
2023-04-09T13:11:00.861Z,15.68
2023-04-09T13:12:03.168Z,14.50
2023-04-09T13:13:07.143Z,15.45
2023-04-09T13:14:13.552Z,15.30
2023-04-09T13:15:15.792Z,14.73
2023-04-09T13:16:18.000Z,16.77
2023-04-09T13:17:20.358Z,13.77
2023-04-09T13:18:22.523Z,15.93
2023-04-09T13:19:24.785Z,13.70
2023-04-09T13:20:27.451Z,13.68
2023-04-09T13:21:29.608Z,13.13
2023-04-09T13:22:31.805Z,13.88
2023-04-09T13:23:33.922Z,14.07
2023-04-09T13:24:36.494Z,14.65
2023-04-09T13:25:38.812Z,13.30
2023-04-09T13:26:41.581Z,14.65
2023-04-09T13:27:44.050Z,13.93
2023-04-09T13:28:46.402Z,16.08
2023-04-09T13:29:48.490Z,14.38
2023-04-09T13:30:51.422Z,19.25
2023-04-09T13:31:53.590Z,14.73
2023-04-09T13:32:55.828Z,14.20
2023-04-09T13:33:58.104Z,14.35
2023-04-09T13:35:00.485Z,12.98
2023-04-09T13:36:02.726Z,13.25
2023-04-09T13:37:05.208Z,13.25
2023-04-09T13:38:07.422Z,14.95
2023-04-09T13:39:09.717Z,16.33
2023-04-09T13:40:12.262Z,14.05